Time;durP1;ratioP1;P1;durP2;ratioP2;P2;SDS_P1;SDS_P2;PMS_P1;PMS_P2;Temp;Humidity;BMP_temperature;BMP_pressure;BME280_temperature;BME280_humidity;BME280_pressure;Samples;Min_cycle;Max_cycle;Signal;HPM_P1;HPM_P2
2021/03/28 00:01:58;;;;;;;19.48;4.82;;;;;;;5.23;100.00;102465.94;4941632;28;20417;-62
2021/03/28 00:04:26;;;;;;;23.50;6.03;;;;;;;5.22;100.00;102458.84;4922283;28;20064;-61
2021/03/28 00:07:00;;;;;;;19.15;4.53;;;;;;;5.21;100.00;102459.81;4934137;28;20059;-62
2021/03/28 00:09:29;;;;;;;19.65;5.63;;;;;;;5.20;100.00;102452.72;4941631;28;20142;-62
2021/03/28 00:12:00;;;;;;;14.80;4.57;;;;;;;5.17;100.00;102452.84;4928380;28;20089;-62
2021/03/28 00:14:40;;;;;;;13.15;4.10;;;;;;;5.10;100.00;102451.34;4925462;29;20078;-62
2021/03/28 00:17:31;;;;;;;25.95;4.78;;;;;;;5.15;100.00;102464.50;4932256;29;20064;-62
2021/03/28 00:20:04;;;;;;;16.10;4.65;;;;;;;5.09;100.00;102452.28;4934286;29;20055;-64
2021/03/28 00:22:34;;;;;;;16.50;4.88;;;;;;;5.07;100.00;102451.47;4929413;29;20091;-61
2021/03/28 00:25:08;;;;;;;18.00;4.47;;;;;;;5.12;100.00;102457.50;4930948;29;20068;-62
2021/03/28 00:27:42;;;;;;;16.17;4.43;;;;;;;5.12;100.00;102444.13;4931696;29;20056;-63
2021/03/28 00:30:23;;;;;;;11.13;3.60;;;;;;;5.11;100.00;102445.09;4930792;29;20134;-62
2021/03/28 00:32:54;;;;;;;17.98;5.18;;;;;;;5.13;100.00;102451.22;4929585;29;20049;-63
2021/03/28 00:35:25;;;;;;;19.67;5.15;;;;;;;5.13;100.00;102447.69;4933663;29;20549;-62
2021/03/28 00:38:03;;;;;;;15.68;4.50;;;;;;;5.12;100.00;102441.47;4931414;29;20051;-62
2021/03/28 00:40:31;;;;;;;24.23;5.73;;;;;;;5.14;100.00;102444.97;4933514;29;20115;-62
2021/03/28 00:43:13;;;;;;;13.40;4.18;;;;;;;5.16;100.00;102440.44;4931510;29;20055;-63
2021/03/28 00:45:50;;;;;;;21.35;4.05;;;;;;;5.23;100.00;102438.38;4932098;29;20047;-62
2021/03/28 00:48:19;;;;;;;16.45;4.03;;;;;;;5.19;100.00;102426.94;4932534;29;20067;-62
2021/03/28 00:50:50;;;;;;;16.17;4.30;;;;;;;5.20;100.00;102442.03;4932236;29;20071;-62
2021/03/28 00:53:39;;;;;;;17.08;4.82;;;;;;;5.28;100.00;102430.19;4930883;29;20056;-62
2021/03/28 00:56:08;;;;;;;16.83;4.75;;;;;;;5.35;100.00;102423.66;4922928;29;20421;-64
2021/03/28 00:58:52;;;;;;;12.32;4.65;;;;;;;5.32;100.00;102424.66;4916536;29;20418;-63
2021/03/28 01:01:25;;;;;;;23.60;5.25;;;;;;;5.36;100.00;102420.03;4922139;29;20750;-63
2021/03/28 01:04:11;;;;;;;21.15;4.68;;;;;;;5.42;100.00;102427.81;4926668;29;20494;-62
2021/03/28 01:06:43;;;;;;;15.90;4.50;;;;;;;5.41;100.00;102423.41;4930722;29;21080;-64
2021/03/28 01:09:19;;;;;;;18.88;4.65;;;;;;;5.43;100.00;102413.53;4932987;28;20062;-62
2021/03/28 01:12:08;;;;;;;15.38;4.53;;;;;;;5.50;100.00;102409.66;4930742;29;20762;-62
2021/03/28 01:14:44;;;;;;;13.40;4.53;;;;;;;5.60;100.00;102411.00;4889918;29;20401;-62
2021/03/28 01:17:25;;;;;;;13.90;4.22;;;;;;;5.63;100.00;102412.69;4931354;29;20067;-62
2021/03/28 01:20:09;;;;;;;20.75;4.72;;;;;;;5.63;100.00;102411.81;4931454;29;20056;-63
2021/03/28 01:22:46;;;;;;;13.77;4.28;;;;;;;5.64;100.00;102403.75;4928657;29;20044;-62
2021/03/28 01:25:45;;;;;;;16.00;5.20;;;;;;;5.62;100.00;102405.59;4932324;29;20110;-61
2021/03/28 01:28:23;;;;;;;17.67;5.28;;;;;;;5.66;100.00;102406.34;4929045;29;20258;-62
2021/03/28 01:30:52;;;;;;;15.60;4.43;;;;;;;5.64;100.00;102400.19;4927172;29;22377;-61
2021/03/28 01:33:26;;;;;;;17.38;5.47;;;;;;;5.68;100.00;102405.31;4931487;29;20043;-61
2021/03/28 01:35:59;;;;;;;13.95;4.13;;;;;;;5.71;100.00;102401.66;4921415;29;20067;-64
2021/03/28 01:38:31;;;;;;;16.05;4.75;;;;;;;5.67;100.00;102397.38;4931520;29;20406;-61
2021/03/28 01:41:01;;;;;;;15.63;4.47;;;;;;;5.65;100.00;102392.09;4928865;29;20055;-61
2021/03/28 01:43:39;;;;;;;12.88;4.88;;;;;;;5.63;100.00;102393.97;4931011;29;20055;-61
2021/03/28 01:46:13;;;;;;;15.05;4.47;;;;;;;5.60;100.00;102386.09;4930056;29;20190;-62
2021/03/28 01:48:48;;;;;;;22.33;5.07;;;;;;;5.60;100.00;102386.97;4931318;29;20059;-61
2021/03/28 01:51:54;;;;;;;17.08;4.70;;;;;;;5.60;100.00;102386.09;4928479;29;20401;-63
2021/03/28 01:54:34;;;;;;;18.00;4.68;;;;;;;5.58;100.00;102386.19;4930517;29;20052;-62
2021/03/28 01:57:06;;;;;;;20.92;5.40;;;;;;;5.64;100.00;102381.50;4930474;29;20059;-63
2021/03/28 01:59:42;;;;;;;18.20;5.28;;;;;;;5.55;100.00;102380.97;4932041;29;20051;-61
2021/03/28 02:02:30;;;;;;;19.48;4.90;;;;;;;5.53;100.00;102369.47;4926831;29;20059;-62
2021/03/28 02:05:10;;;;;;;14.37;4.67;;;;;;;5.55;100.00;102364.94;4929216;29;20063;-62
2021/03/28 02:07:54;;;;;;;17.58;4.75;;;;;;;5.61;100.00;102375.34;4927585;29;20284;-61
2021/03/28 02:10:48;;;;;;;22.27;5.00;;;;;;;5.61;100.00;102383.38;4928792;29;20060;-61
2021/03/28 02:13:19;;;;;;;14.20;4.80;;;;;;;5.63;100.00;102374.44;4947967;28;20051;-64
2021/03/28 02:16:04;;;;;;;13.02;4.05;;;;;;;5.66;100.00;102380.50;4947170;28;20114;-63
2021/03/28 02:18:57;;;;;;;16.20;4.43;;;;;;;5.67;100.00;102386.69;4950441;28;20253;-61
2021/03/28 02:21:40;;;;;;;21.58;4.72;;;;;;;5.63;100.00;102377.97;4947048;28;20109;-62
2021/03/28 02:24:14;;;;;;;18.17;4.55;;;;;;;5.60;100.00;102392.31;4950407;28;20066;-62
2021/03/28 02:26:45;;;;;;;13.77;4.53;;;;;;;5.63;100.00;102385.13;4950567;28;20051;-62
2021/03/28 02:29:20;;;;;;;17.42;5.00;;;;;;;5.62;100.00;102389.56;4947951;28;20496;-62
2021/03/28 02:32:06;;;;;;;16.83;4.97;;;;;;;5.59;100.00;102385.25;4944694;28;20101;-61
2021/03/28 02:34:37;;;;;;;13.07;3.97;;;;;;;5.55;100.00;102382.75;4948301;28;20374;-61
2021/03/28 02:37:12;;;;;;;12.68;4.00;;;;;;;5.53;100.00;102374.81;4948004;28;20055;-62
2021/03/28 02:39:45;;;;;;;18.98;4.80;;;;;;;5.54;100.00;102375.69;4949280;28;20055;-64
2021/03/28 02:42:18;;;;;;;16.30;4.80;;;;;;;5.55;100.00;102378.31;4946301;28;20544;-62
2021/03/28 02:45:17;;;;;;;13.93;4.28;;;;;;;5.52;100.00;102378.44;4951105;28;20140;-62
2021/03/28 02:48:09;;;;;;;14.05;4.05;;;;;;;5.49;100.00;102378.56;4949072;28;20209;-61
2021/03/28 02:50:54;;;;;;;16.40;4.57;;;;;;;5.44;100.00;102375.22;4949732;28;20047;-61
2021/03/28 02:53:28;;;;;;;14.27;4.35;;;;;;;5.38;100.00;102380.81;4946192;28;20062;-63
2021/03/28 02:56:25;;;;;;;16.60;4.55;;;;;;;5.38;100.00;102370.13;4950953;28;20531;-64
2021/03/28 02:59:07;;;;;;;22.05;5.05;;;;;;;5.37;100.00;102363.91;4950039;28;20051;-61
2021/03/28 03:01:45;;;;;;;20.13;4.72;;;;;;;5.35;100.00;102370.28;4946835;28;20043;-62
2021/03/28 03:04:31;;;;;;;21.10;5.88;;;;;;;5.30;100.00;102375.81;4951469;28;20134;-61
2021/03/28 03:07:17;;;;;;;19.08;4.80;;;;;;;5.32;100.00;102376.59;4946228;28;20043;-63
2021/03/28 03:10:03;;;;;;;20.30;5.07;;;;;;;5.29;100.00;102375.88;4937335;28;20095;-62
2021/03/28 03:12:42;;;;;;;14.52;5.38;;;;;;;5.28;100.00;102371.47;4947010;28;20051;-64
2021/03/28 03:15:20;;;;;;;17.55;4.32;;;;;;;5.29;100.00;102375.88;4948342;28;20051;-64
2021/03/28 03:18:19;;;;;;;22.02;5.90;;;;;;;5.30;100.00;102377.59;4948497;28;20812;-61
2021/03/28 03:21:07;;;;;;;24.10;5.68;;;;;;;5.22;100.00;102373.44;4947103;28;20061;-62
2021/03/28 03:24:22;;;;;;;19.20;5.25;;;;;;;5.20;100.00;102377.97;4950751;28;20058;-63
2021/03/28 03:27:21;;;;;;;19.80;6.30;;;;;;;5.14;100.00;102383.59;4896610;28;20054;-61
2021/03/28 03:30:04;;;;;;;19.50;6.00;;;;;;;5.10;100.00;102376.63;4948938;28;20063;-62
2021/03/28 03:33:11;;;;;;;17.52;6.00;;;;;;;5.12;100.00;102388.09;4942706;28;20408;-62
2021/03/28 03:35:52;;;;;;;20.27;6.03;;;;;;;5.12;100.00;102372.09;4911915;29;20056;-63
2021/03/28 03:38:29;;;;;;;21.05;5.50;;;;;;;5.09;100.00;102374.88;4947473;28;20101;-62
2021/03/28 03:41:15;;;;;;;15.63;5.72;;;;;;;5.03;100.00;102372.47;4946047;28;20062;-61
2021/03/28 03:43:58;;;;;;;15.02;6.00;;;;;;;4.96;100.00;102373.66;4950086;28;20035;-63
2021/03/28 03:46:40;;;;;;;17.27;5.80;;;;;;;4.94;100.00;102372.84;4949408;28;20055;-61
2021/03/28 03:49:35;;;;;;;19.02;5.57;;;;;;;4.97;100.00;102375.41;4950370;28;20106;-63
2021/03/28 03:52:24;;;;;;;15.30;5.90;;;;;;;4.99;100.00;102371.75;4951762;28;20567;-62
2021/03/28 03:54:57;;;;;;;18.80;5.78;;;;;;;4.94;100.00;102375.53;4952327;28;20059;-61
2021/03/28 03:57:36;;;;;;;17.02;6.68;;;;;;;4.98;100.00;102377.13;4951876;28;20055;-62
2021/03/28 04:00:12;;;;;;;15.95;5.93;;;;;;;5.03;100.00;102375.13;4951209;28;20063;-63
2021/03/28 04:02:45;;;;;;;21.33;6.72;;;;;;;5.07;100.00;102374.09;4950596;28;20051;-61
2021/03/28 04:05:24;;;;;;;20.58;6.60;;;;;;;5.07;100.00;102371.41;4950664;28;20047;-61
2021/03/28 04:08:28;;;;;;;18.20;5.95;;;;;;;5.09;100.00;102358.88;4953147;28;20062;-62
2021/03/28 04:11:06;;;;;;;19.50;6.10;;;;;;;5.16;100.00;102380.84;4950267;28;20047;-64
2021/03/28 04:13:53;;;;;;;24.15;5.40;;;;;;;5.19;100.00;102375.38;4951934;28;20054;-61
2021/03/28 04:16:31;;;;;;;14.65;5.30;;;;;;;5.21;100.00;102368.16;4951117;28;20051;-62
2021/03/28 04:19:27;;;;;;;11.95;4.97;;;;;;;5.19;100.00;102376.22;4951187;28;20086;-62
2021/03/28 04:22:15;;;;;;;17.63;5.25;;;;;;;5.21;100.00;102374.38;4950516;28;20050;-63
2021/03/28 04:24:53;;;;;;;14.18;5.15;;;;;;;5.22;100.00;102375.25;4951460;28;20516;-61
2021/03/28 04:29:52;;;;;;;20.10;5.47;;;;;;;5.30;100.00;102385.59;5067652;22;20053;-62
2021/03/28 04:32:41;;;;;;;13.07;4.50;;;;;;;5.28;100.00;102374.13;5040520;28;20493;-64
2021/03/28 04:35:29;;;;;;;14.45;4.38;;;;;;;5.29;100.00;102375.88;5033427;28;20048;-61
2021/03/28 04:38:13;;;;;;;13.30;4.35;;;;;;;5.36;100.00;102366.66;5042934;28;20049;-63
2021/03/28 04:41:02;;;;;;;14.43;5.25;;;;;;;5.37;100.00;102368.38;5045398;28;20041;-62
2021/03/28 04:44:03;;;;;;;15.60;4.53;;;;;;;5.43;100.00;102378.81;5042818;28;20049;-61
2021/03/28 04:46:51;;;;;;;16.33;4.40;;;;;;;5.33;100.00;102372.13;5056431;28;20174;-61
2021/03/28 04:49:41;;;;;;;11.90;4.28;;;;;;;5.36;100.00;102371.97;5060804;28;20048;-61
2021/03/28 04:52:40;;;;;;;13.55;4.07;;;;;;;5.26;100.00;102361.69;5056557;28;20055;-61
2021/03/28 04:55:39;;;;;;;14.65;5.18;;;;;;;5.14;100.00;102359.56;5058719;28;20044;-64
2021/03/28 04:58:19;;;;;;;13.63;4.57;;;;;;;5.05;100.00;102343.91;5060483;28;20264;-61
2021/03/28 05:01:11;;;;;;;15.82;4.95;;;;;;;4.97;100.00;102354.06;5057734;28;20048;-64
2021/03/28 05:04:07;;;;;;;14.32;4.82;;;;;;;5.01;100.00;102351.19;5061758;28;20033;-61
2021/03/28 05:07:12;;;;;;;14.55;4.53;;;;;;;5.00;100.00;102351.25;5045030;28;20041;-63
2021/03/28 05:10:04;;;;;;;16.60;4.53;;;;;;;4.94;100.00;102359.50;5055220;28;20063;-62
2021/03/28 05:12:57;;;;;;;16.67;4.30;;;;;;;4.96;100.00;102360.31;5060552;28;20048;-61
2021/03/28 05:15:43;;;;;;;14.70;4.30;;;;;;;4.96;100.00;102352.31;5060609;28;20563;-62
2021/03/28 05:18:36;;;;;;;15.93;4.55;;;;;;;5.00;100.00;102351.25;5060959;28;20048;-61
2021/03/28 05:21:37;;;;;;;16.55;4.40;;;;;;;5.06;100.00;102348.31;5056665;28;20382;-61
2021/03/28 05:24:42;;;;;;;21.00;4.25;;;;;;;5.02;100.00;102352.03;5059478;28;20041;-61
2021/03/28 05:27:55;;;;;;;14.93;4.40;;;;;;;5.02;100.00;102342.25;5058837;28;21241;-63
2021/03/28 05:30:50;;;;;;;13.88;3.97;;;;;;;5.11;100.00;102341.00;5051874;28;20057;-61
2021/03/28 05:33:42;;;;;;;11.95;3.67;;;;;;;5.18;100.00;102341.59;5059430;28;20107;-62
2021/03/28 05:36:40;;;;;;;14.20;4.60;;;;;;;5.25;100.00;102343.94;5058648;28;20048;-61
2021/03/28 05:39:29;;;;;;;17.48;4.38;;;;;;;5.34;100.00;102341.81;5059484;28;20048;-61
2021/03/28 05:42:09;;;;;;;10.23;3.70;;;;;;;5.47;100.00;102332.34;5013223;28;20461;-62
2021/03/28 05:45:00;;;;;;;10.65;3.75;;;;;;;5.57;100.00;102333.69;5060374;28;20060;-62
2021/03/28 05:47:42;;;;;;;15.48;3.33;;;;;;;5.63;100.00;102334.38;5040478;28;20041;-61
2021/03/28 05:50:35;;;;;;;12.48;3.53;;;;;;;5.66;100.00;102328.88;5040531;28;20175;-62
2021/03/28 05:53:40;;;;;;;14.52;3.63;;;;;;;5.78;100.00;102328.31;5037136;28;20057;-62
2021/03/28 05:56:41;;;;;;;14.52;3.58;;;;;;;5.87;100.00;102327.91;5040119;28;20083;-62
2021/03/28 05:59:34;;;;;;;15.20;3.83;;;;;;;5.85;100.00;102327.13;5048196;28;20061;-62
2021/03/28 06:02:31;;;;;;;16.88;4.35;;;;;;;5.96;100.00;102326.63;5058238;28;20052;-62
2021/03/28 06:05:40;;;;;;;16.25;3.35;;;;;;;6.18;100.00;102323.84;5061020;28;20074;-61
2021/03/28 06:08:21;;;;;;;;;;;;;;;6.28;100.00;102318.94;5058527;28;20194;-63
2021/03/28 06:11:29;;;;;;;11.05;3.40;;;;;;;6.34;100.00;102317.81;5058478;28;19924;-61
2021/03/28 06:14:35;;;;;;;17.90;4.03;;;;;;;6.44;100.00;102327.13;5059679;28;20402;-62
2021/03/28 06:17:17;;;;;;;10.48;3.50;;;;;;;6.50;100.00;102324.16;5058572;28;20078;-62
2021/03/28 06:20:10;;;;;;;9.32;2.95;;;;;;;6.61;100.00;102331.66;5060021;28;20425;-61
2021/03/28 06:23:01;;;;;;;13.82;3.40;;;;;;;6.68;100.00;102332.22;5058052;28;20048;-61
2021/03/28 06:26:12;;;;;;;12.05;2.90;;;;;;;6.76;100.00;102330.06;5058549;28;20055;-61
2021/03/28 06:29:16;;;;;;;16.42;3.83;;;;;;;6.77;100.00;102337.13;5025629;28;20049;-61
2021/03/28 06:32:13;;;;;;;14.95;3.53;;;;;;;6.80;100.00;102345.00;5057057;28;20052;-62
2021/03/28 06:35:15;;;;;;;10.10;3.13;;;;;;;6.79;100.00;102343.28;5043175;28;20053;-61
2021/03/28 06:38:21;;;;;;;8.32;3.10;;;;;;;6.79;100.00;102340.63;5058090;28;20036;-62
2021/03/28 06:41:15;;;;;;;10.45;3.17;;;;;;;6.77;100.00;102337.13;5057749;28;20045;-62
2021/03/28 06:44:20;;;;;;;10.95;3.50;;;;;;;6.72;100.00;102333.81;5023710;28;20040;-63
2021/03/28 06:47:13;;;;;;;9.02;3.58;;;;;;;6.77;100.00;102342.47;5057594;28;20390;-62
2021/03/28 06:49:59;;;;;;;9.05;2.92;;;;;;;6.86;100.00;102344.72;5058504;28;20408;-62
2021/03/28 06:52:39;;;;;;;14.85;3.22;;;;;;;6.97;100.00;102353.06;5057620;28;20049;-61
2021/03/28 06:55:36;;;;;;;10.80;3.55;;;;;;;7.03;100.00;102349.22;5050172;28;20052;-63
2021/03/28 06:58:39;;;;;;;10.35;3.28;;;;;;;7.07;100.00;102348.13;5013361;28;20053;-63
2021/03/28 07:01:25;;;;;;;11.88;3.33;;;;;;;7.18;100.00;102352.94;5038115;28;20041;-61
2021/03/28 07:04:17;;;;;;;13.23;3.15;;;;;;;7.20;100.00;102348.41;5056733;28;20052;-62
2021/03/28 07:06:48;;;;;;;19.60;4.35;;;;;;;7.13;100.00;102339.78;5057400;28;20109;-64
2021/03/28 07:09:40;;;;;;;10.65;3.50;;;;;;;7.18;100.00;102342.22;5059301;28;20464;-65
2021/03/28 07:12:17;;;;;;;11.43;4.03;;;;;;;7.31;100.00;102335.31;5027707;28;20056;-63
2021/03/28 07:15:26;;;;;;;11.38;3.53;;;;;;;7.52;100.00;102343.19;5057979;28;20107;-63
2021/03/28 07:18:12;;;;;;;8.93;3.20;;;;;;;7.71;100.00;102340.41;4979014;28;20054;-63
2021/03/28 07:20:51;;;;;;;12.18;3.75;;;;;;;7.89;100.00;102350.16;4989709;28;20438;-61
2021/03/28 07:23:29;;;;;;;;;;;;;;;8.05;100.00;102338.59;5039429;28;20049;-61
2021/03/28 07:26:01;;;;;;;15.75;3.72;;;;;;;8.14;100.00;102337.22;5058796;28;20731;-62
2021/03/28 07:29:27;;;;;;;11.02;3.70;;;;;;;8.37;100.00;102338.66;5058892;28;20041;-61
2021/03/28 07:32:32;;;;;;;13.60;3.58;;;;;;;8.44;100.00;102333.81;5056550;28;20056;-61
2021/03/28 07:35:35;;;;;;;11.25;3.58;;;;;;;8.36;100.00;102332.44;5054681;28;20484;-61
2021/03/28 07:38:37;;;;;;;7.80;3.60;;;;;;;8.33;100.00;102327.25;5056779;28;20494;-63
2021/03/28 07:41:39;;;;;;;10.10;3.53;;;;;;;8.34;100.00;102328.94;5056801;28;20057;-62
2021/03/28 07:44:57;;;;;;;8.05;3.00;;;;;;;8.30;100.00;102332.75;5045158;28;20052;-64
2021/03/28 07:47:51;;;;;;;9.27;3.50;;;;;;;8.35;100.00;102333.38;5052634;28;20064;-63
2021/03/28 07:50:51;;;;;;;10.75;3.08;;;;;;;8.54;100.00;102329.72;5039735;28;20052;-64
2021/03/28 07:53:42;;;;;;;8.88;3.15;;;;;;;8.70;100.00;102327.00;5051543;28;20079;-64
2021/03/28 07:56:39;;;;;;;8.98;3.17;;;;;;;8.83;100.00;102336.06;5038417;28;20052;-62
2021/03/28 07:59:11;;;;;;;8.80;3.10;;;;;;;8.89;100.00;102332.16;5056523;28;20110;-63
2021/03/28 08:01:52;;;;;;;15.98;3.58;;;;;;;9.20;100.00;102327.69;5057307;28;20048;-63
2021/03/28 08:05:05;;;;;;;12.88;3.53;;;;;;;9.18;100.00;102332.28;5059073;28;20074;-63
2021/03/28 08:07:47;;;;;;;9.50;2.67;;;;;;;9.25;100.00;102320.22;5059602;28;20059;-63
2021/03/28 08:10:40;;;;;;;8.75;3.40;;;;;;;9.20;100.00;102316.94;5058188;28;20049;-63
2021/03/28 08:13:54;;;;;;;16.70;4.22;;;;;;;9.22;100.00;102331.16;5055832;28;20052;-64
2021/03/28 08:16:34;;;;;;;12.18;3.58;;;;;;;9.35;100.00;102313.34;5055395;28;20058;-63
2021/03/28 08:19:25;;;;;;;9.85;3.25;;;;;;;9.56;100.00;102307.63;5058098;28;20502;-63
2021/03/28 08:21:58;;;;;;;9.35;3.40;;;;;;;9.92;100.00;102311.69;5047562;28;20119;-63
2021/03/28 08:24:53;;;;;;;7.30;2.88;;;;;;;9.84;100.00;102319.38;5039035;28;20045;-63
2021/03/28 08:27:47;;;;;;;13.82;3.05;;;;;;;9.92;100.00;102311.69;5051589;28;20057;-63
2021/03/28 08:30:47;;;;;;;9.05;3.17;;;;;;;10.00;100.00;102317.44;5057802;28;20452;-62
2021/03/28 08:33:26;;;;;;;8.82;3.33;;;;;;;9.94;100.00;102307.94;5056225;28;20044;-63
2021/03/28 08:36:21;;;;;;;12.40;3.70;;;;;;;9.73;100.00;102295.81;5059761;28;20048;-63
2021/03/28 08:39:05;;;;;;;8.82;3.20;;;;;;;9.71;100.00;102306.66;5045041;28;20064;-63
2021/03/28 08:42:09;;;;;;;10.95;3.55;;;;;;;9.79;100.00;102290.94;5061198;28;20044;-63
2021/03/28 08:45:07;;;;;;;7.60;2.72;;;;;;;9.70;100.00;102299.59;5060995;28;20049;-65
2021/03/28 08:48:03;;;;;;;13.13;3.80;;;;;;;9.64;100.00;102297.25;5033920;28;20510;-62
2021/03/28 08:50:37;;;;;;;10.88;3.30;;;;;;;9.67;100.00;102306.97;5030830;28;20479;-63
2021/03/28 08:53:25;;;;;;;8.52;3.45;;;;;;;9.68;100.00;102296.09;5042571;28;20533;-63
2021/03/28 08:56:18;;;;;;;7.85;3.53;;;;;;;9.65;100.00;102297.16;5062628;28;20071;-62
2021/03/28 08:58:54;;;;;;;10.05;3.53;;;;;;;9.46;100.00;102292.03;5051787;28;20406;-64
2021/03/28 09:01:30;;;;;;;13.57;3.60;;;;;;;9.57;100.00;102293.22;5060327;28;20040;-63
2021/03/28 09:04:11;;;;;;;11.93;4.30;;;;;;;9.56;100.00;102297.72;5061313;28;20044;-63
2021/03/28 09:07:06;;;;;;;11.25;4.07;;;;;;;9.53;100.00;102305.13;5054103;28;20045;-62
2021/03/28 09:09:57;;;;;;;10.82;3.58;;;;;;;9.76;100.00;102304.56;5039976;28;20045;-63
2021/03/28 09:12:33;;;;;;;8.13;3.60;;;;;;;10.06;100.00;102294.69;5045086;28;20040;-63
2021/03/28 09:15:19;;;;;;;8.95;3.25;;;;;;;10.34;100.00;102304.56;5060642;28;20052;-64
2021/03/28 09:17:58;;;;;;;9.52;3.83;;;;;;;10.73;100.00;102300.22;5061870;28;20049;-63
2021/03/28 09:20:39;;;;;;;9.85;3.13;;;;;;;10.77;100.00;102296.34;5060354;28;20444;-63
2021/03/28 09:23:24;;;;;;;12.13;4.03;;;;;;;11.08;100.00;102283.53;5059428;28;20198;-63
2021/03/28 09:26:01;;;;;;;9.73;3.17;;;;;;;11.11;100.00;102302.16;5060877;28;20071;-64
2021/03/28 09:28:36;;;;;;;9.65;3.85;;;;;;;11.37;100.00;102300.38;5054228;28;20061;-63
2021/03/28 09:31:10;;;;;;;12.40;3.55;;;;;;;11.49;100.00;102292.44;5057998;28;20052;-64
2021/03/28 09:33:44;;;;;;;11.98;3.00;;;;;;;11.26;100.00;102297.56;5058091;28;20469;-64
2021/03/28 09:36:28;;;;;;;10.68;3.70;;;;;;;11.16;100.00;102302.75;5058987;28;20071;-64
2021/03/28 09:39:19;;;;;;;8.52;2.80;;;;;;;11.19;100.00;102307.06;5060645;28;20111;-64
2021/03/28 09:42:07;;;;;;;9.15;2.95;;;;;;;11.20;100.00;102316.84;5049283;28;20060;-63
2021/03/28 09:44:42;;;;;;;8.00;2.80;;;;;;;11.06;100.00;102312.41;5060535;28;20471;-63
2021/03/28 09:47:17;;;;;;;8.65;3.00;;;;;;;11.25;100.00;102313.84;5059132;28;20494;-63
2021/03/28 09:49:59;;;;;;;13.43;2.50;;;;;;;11.37;100.00;102315.72;5061174;28;20110;-63
2021/03/28 09:52:52;;;;;;;5.97;2.53;;;;;;;11.24;98.76;102331.84;5059477;28;20060;-63
2021/03/28 09:55:37;;;;;;;8.48;2.88;;;;;;;11.29;100.00;102318.06;5058006;28;20532;-64
2021/03/28 09:58:34;;;;;;;13.40;2.42;;;;;;;11.23;97.37;102303.16;5053605;28;20064;-63
2021/03/28 10:01:25;;;;;;;8.07;2.38;;;;;;;11.15;96.65;102322.56;5058697;28;20063;-64
2021/03/28 10:03:57;;;;;;;8.27;2.08;;;;;;;11.17;97.78;102323.34;5060533;28;20463;-63
2021/03/28 10:06:25;;;;;;;8.77;2.67;;;;;;;11.15;98.03;102311.78;5060126;28;20413;-64
2021/03/28 10:09:02;;;;;;;7.47;2.05;;;;;;;11.12;96.12;102324.63;5059774;28;20048;-64
2021/03/28 10:11:37;;;;;;;8.73;2.33;;;;;;;11.21;96.07;102326.66;5059430;28;20514;-65
2021/03/28 10:14:48;;;;;;;9.32;2.15;;;;;;;11.28;95.33;102322.59;5059274;28;20053;-64
2021/03/28 10:17:28;;;;;;;10.40;2.38;;;;;;;11.12;94.59;102328.16;5007402;28;20064;-63
2021/03/28 10:20:10;;;;;;;5.78;1.95;;;;;;;11.00;94.50;102340.63;5058143;28;20052;-65
2021/03/28 10:22:47;;;;;;;10.68;2.53;;;;;;;10.94;96.43;102334.75;5044327;28;20045;-64
2021/03/28 10:25:33;;;;;;;12.40;2.88;;;;;;;10.83;96.88;102328.25;5055133;28;20102;-64
2021/03/28 10:28:33;;;;;;;7.65;2.65;;;;;;;10.76;99.32;102340.44;5057304;28;20409;-64
2021/03/28 10:31:20;;;;;;;10.40;3.22;;;;;;;10.55;100.00;102340.00;5057095;28;22740;-64
2021/03/28 10:34:01;;;;;;;9.35;2.53;;;;;;;10.43;100.00;102341.66;5058586;28;20048;-64
2021/03/28 10:36:44;;;;;;;10.07;2.85;;;;;;;10.27;100.00;102346.25;5057890;28;20533;-63
2021/03/28 10:39:22;;;;;;;9.15;2.95;;;;;;;10.28;100.00;102348.00;5058970;28;20052;-64
2021/03/28 10:42:19;;;;;;;17.58;3.95;;;;;;;10.21;100.00;102365.50;5057537;28;20502;-63
2021/03/28 10:45:11;;;;;;;13.23;2.95;;;;;;;10.22;100.00;102359.13;5057834;28;20129;-65
2021/03/28 10:48:15;;;;;;;14.02;3.40;;;;;;;10.23;100.00;102361.75;5057182;28;20081;-62
2021/03/28 10:51:13;;;;;;;10.75;3.05;;;;;;;10.18;100.00;102370.06;5056918;28;20123;-63
2021/03/28 10:54:16;;;;;;;9.88;3.25;;;;;;;10.23;100.00;102360.84;5054736;28;20049;-63
2021/03/28 10:57:19;;;;;;;17.35;3.42;;;;;;;10.27;100.00;102365.94;5048892;28;20059;-64
2021/03/28 11:00:14;;;;;;;11.10;3.13;;;;;;;10.16;100.00;102355.88;5048160;28;20052;-64
2021/03/28 11:03:16;;;;;;;9.57;3.47;;;;;;;10.13;100.00;102349.84;5055064;28;20098;-62
2021/03/28 11:06:01;;;;;;;14.38;3.78;;;;;;;10.09;100.00;102353.66;5055087;28;20482;-63
2021/03/28 11:09:06;;;;;;;9.07;3.17;;;;;;;10.06;100.00;102365.47;5046008;28;20489;-61
2021/03/28 11:11:51;;;;;;;13.50;2.97;;;;;;;9.96;100.00;102369.69;5015375;28;20052;-62
2021/03/28 11:14:33;;;;;;;12.88;3.20;;;;;;;9.99;100.00;102361.44;5034166;28;20045;-62
2021/03/28 11:17:17;;;;;;;10.90;3.45;;;;;;;9.89;100.00;102362.97;5035144;28;20134;-62
2021/03/28 11:20:18;;;;;;;9.00;3.10;;;;;;;9.90;100.00;102370.09;5055604;28;20519;-62
2021/03/28 11:22:50;;;;;;;11.27;3.28;;;;;;;9.97;100.00;102374.13;5055151;28;20053;-62
2021/03/28 11:25:20;;;;;;;12.85;3.70;;;;;;;9.96;100.00;102369.69;5055200;28;20053;-63
2021/03/28 11:28:23;;;;;;;10.15;3.20;;;;;;;9.92;100.00;102363.66;5056164;28;20393;-63
2021/03/28 11:30:53;;;;;;;16.10;3.30;;;;;;;9.91;100.00;102355.66;5048727;28;20045;-65
2021/03/28 11:33:27;;;;;;;11.40;3.30;;;;;;;9.97;100.00;102372.28;5055200;28;20045;-63
2021/03/28 11:36:15;;;;;;;15.50;3.72;;;;;;;10.04;100.00;102366.53;5056152;28;20067;-64
2021/03/28 11:38:46;;;;;;;9.93;3.20;;;;;;;10.05;100.00;102361.03;5057800;28;20048;-65
2021/03/28 11:41:40;;;;;;;13.05;3.30;;;;;;;10.12;100.00;102370.47;5055948;28;20052;-64
2021/03/28 11:46:37;;;;;;;11.30;3.08;;;;;;;10.04;100.00;102366.53;5058515;22;20040;-63
2021/03/28 11:49:11;;;;;;;12.68;3.20;;;;;;;10.07;100.00;102366.34;5044691;28;20132;-65
2021/03/28 11:52:11;;;;;;;12.95;3.22;;;;;;;10.04;100.00;102367.41;5047795;28;20437;-63
2021/03/28 11:54:37;;;;;;;10.20;3.10;;;;;;;10.08;100.00;102357.31;5061153;28;20055;-63
2021/03/28 11:57:29;;;;;;;7.68;3.03;;;;;;;10.15;100.00;102370.28;5061010;28;20064;-63
2021/03/28 11:59:55;;;;;;;12.02;3.50;;;;;;;10.20;100.00;102367.28;5062929;28;20060;-63
2021/03/28 12:02:25;;;;;;;9.13;2.70;;;;;;;10.23;100.00;102360.84;5066246;28;20063;-63
2021/03/28 12:05:30;;;;;;;14.00;3.40;;;;;;;10.27;100.00;102379.41;5068139;28;20128;-63
2021/03/28 12:08:10;;;;;;;8.00;2.92;;;;;;;10.30;100.00;102364.91;5067908;28;20428;-64
2021/03/28 12:10:37;;;;;;;9.82;3.00;;;;;;;10.24;100.00;102365.28;5045167;28;20083;-65
2021/03/28 12:13:29;;;;;;;11.48;2.90;;;;;;;10.19;100.00;102379.03;5058061;28;20052;-63
2021/03/28 12:15:59;;;;;;;8.32;3.00;;;;;;;10.24;100.00;102376.91;5050316;28;20482;-65
2021/03/28 12:18:39;;;;;;;10.10;3.10;;;;;;;10.24;100.00;102374.22;5049419;28;20128;-63
2021/03/28 12:21:55;;;;;;;11.38;2.72;;;;;;;10.24;100.00;102378.75;5055486;28;20433;-63
2021/03/28 12:24:32;;;;;;;13.02;2.83;;;;;;;10.24;100.00;102367.97;5012044;28;20052;-64
2021/03/28 12:27:20;;;;;;;11.18;2.67;;;;;;;10.27;100.00;102373.16;5068275;28;20036;-63
2021/03/28 12:29:49;;;;;;;13.40;3.05;;;;;;;10.37;100.00;102370.81;5069025;28;20490;-65
2021/03/28 12:32:43;;;;;;;8.73;2.55;;;;;;;10.40;100.00;102373.28;5065640;28;20048;-63
2021/03/28 12:35:18;;;;;;;13.02;3.15;;;;;;;10.42;100.00;102372.22;5066675;28;20052;-63
2021/03/28 12:37:47;;;;;;;12.07;3.15;;;;;;;10.48;100.00;102369.16;5067161;28;20056;-64
2021/03/28 12:40:37;;;;;;;;;;;;;;;10.51;100.00;102371.66;5067762;28;20067;-63
2021/03/28 12:43:18;;;;;;;13.00;2.97;;;;;;;10.55;100.00;102379.53;5049789;28;19981;-63
2021/03/28 12:45:45;;;;;;;10.27;3.15;;;;;;;10.49;100.00;102372.69;5065866;28;20056;-64
2021/03/28 12:48:33;;;;;;;14.50;3.17;;;;;;;10.47;100.00;102378.19;5067588;28;20056;-63